sensor_id;sensor_type;location;lat;lon;timestamp;pressure;altitude;pressure_sealevel;temperature;humidity
75942;BME280;64622;46.220;19.878;2023-11-19T00:01:56;101082.81;;;0.40;100.00
75942;BME280;64622;46.220;19.878;2023-11-19T00:04:24;101094.22;;;0.40;100.00
75942;BME280;64622;46.220;19.878;2023-11-19T00:06:51;101086.62;;;0.34;100.00
75942;BME280;64622;46.220;19.878;2023-11-19T00:09:18;101087.63;;;0.32;100.00
75942;BME280;64622;46.220;19.878;2023-11-19T00:11:45;101087.63;;;0.32;100.00
75942;BME280;64622;46.220;19.878;2023-11-19T00:14:13;101072.28;;;0.23;100.00
75942;BME280;64622;46.220;19.878;2023-11-19T00:16:40;101067.09;;;0.21;100.00
75942;BME280;64622;46.220;19.878;2023-11-19T00:19:07;101068.34;;;0.14;100.00
75942;BME280;64622;46.220;19.878;2023-11-19T00:21:35;101067.63;;;0.11;100.00
75942;BME280;64622;46.220;19.878;2023-11-19T00:24:03;101074.37;;;0.16;100.00
75942;BME280;64622;46.220;19.878;2023-11-19T00:26:31;101078.63;;;0.19;100.00
75942;BME280;64622;46.220;19.878;2023-11-19T00:28:57;101075.44;;;0.12;100.00
75942;BME280;64622;46.220;19.878;2023-11-19T00:31:25;101069.72;;;0.04;100.00
75942;BME280;64622;46.220;19.878;2023-11-19T00:33:55;101076.97;;;-0.01;100.00
75942;BME280;64622;46.220;19.878;2023-11-19T00:36:21;101072.81;;;-0.23;100.00
75942;BME280;64622;46.220;19.878;2023-11-19T00:38:51;101073.03;;;-0.28;100.00
75942;BME280;64622;46.220;19.878;2023-11-19T00:41:20;101086.03;;;-0.25;100.00
75942;BME280;64622;46.220;19.878;2023-11-19T00:43:48;101075.56;;;-0.26;100.00
75942;BME280;64622;46.220;19.878;2023-11-19T00:46:16;101085.44;;;-0.31;100.00
75942;BME280;64622;46.220;19.878;2023-11-19T00:48:43;101087.59;;;-0.39;100.00
75942;BME280;64622;46.220;19.878;2023-11-19T00:51:12;101086.66;;;-0.38;100.00
75942;BME280;64622;46.220;19.878;2023-11-19T00:53:38;101091.81;;;-0.35;100.00
75942;BME280;64622;46.220;19.878;2023-11-19T00:56:06;101091.22;;;-0.42;100.00
75942;BME280;64622;46.220;19.878;2023-11-19T00:58:33;101083.69;;;-0.49;100.00
75942;BME280;64622;46.220;19.878;2023-11-19T01:01:00;101083.34;;;-0.60;100.00
75942;BME280;64622;46.220;19.878;2023-11-19T01:03:27;101074.16;;;-0.70;100.00
75942;BME280;64622;46.220;19.878;2023-11-19T01:05:54;101060.50;;;-0.78;100.00
75942;BME280;64622;46.220;19.878;2023-11-19T01:08:21;101066.00;;;-0.64;100.00
75942;BME280;64622;46.220;19.878;2023-11-19T01:10:48;101065.47;;;-0.54;100.00
75942;BME280;64622;46.220;19.878;2023-11-19T01:13:15;101077.56;;;-0.50;100.00
75942;BME280;64622;46.220;19.878;2023-11-19T01:15:41;101068.03;;;-0.52;100.00
75942;BME280;64622;46.220;19.878;2023-11-19T01:18:08;101081.78;;;-0.46;100.00
75942;BME280;64622;46.220;19.878;2023-11-19T01:20:36;101066.22;;;-0.50;100.00
75942;BME280;64622;46.220;19.878;2023-11-19T01:23:03;101058.69;;;-0.57;100.00
75942;BME280;64622;46.220;19.878;2023-11-19T01:25:30;101059.53;;;-0.57;100.00
75942;BME280;64622;46.220;19.878;2023-11-19T01:27:57;101065.94;;;-0.62;100.00
75942;BME280;64622;46.220;19.878;2023-11-19T01:30:25;101062.44;;;-0.63;100.00
75942;BME280;64622;46.220;19.878;2023-11-19T01:32:52;101060.75;;;-0.64;100.00
75942;BME280;64622;46.220;19.878;2023-11-19T01:35:18;101064.06;;;-0.61;100.00
75942;BME280;64622;46.220;19.878;2023-11-19T01:37:46;101071.09;;;-0.61;100.00
75942;BME280;64622;46.220;19.878;2023-11-19T01:40:20;101059.75;;;-0.62;100.00
75942;BME280;64622;46.220;19.878;2023-11-19T01:42:47;101062.78;;;-0.71;100.00
75942;BME280;64622;46.220;19.878;2023-11-19T01:45:24;101065.41;;;-0.71;100.00
75942;BME280;64622;46.220;19.878;2023-11-19T01:47:55;101062.66;;;-0.68;100.00
75942;BME280;64622;46.220;19.878;2023-11-19T01:50:23;101068.47;;;-0.61;100.00
75942;BME280;64622;46.220;19.878;2023-11-19T01:52:54;101068.56;;;-0.62;100.00
75942;BME280;64622;46.220;19.878;2023-11-19T01:55:25;101086.09;;;-0.63;100.00
75942;BME280;64622;46.220;19.878;2023-11-19T01:57:57;101070.44;;;-0.66;100.00
75942;BME280;64622;46.220;19.878;2023-11-19T02:00:26;101073.94;;;-0.66;100.00
75942;BME280;64622;46.220;19.878;2023-11-19T02:02:53;101070.91;;;-0.57;100.00
75942;BME280;64622;46.220;19.878;2023-11-19T02:05:22;101060.37;;;-0.57;100.00
75942;BME280;64622;46.220;19.878;2023-11-19T02:07:49;101064.72;;;-0.56;100.00
75942;BME280;64622;46.220;19.878;2023-11-19T02:10:18;101053.97;;;-0.70;100.00
75942;BME280;64622;46.220;19.878;2023-11-19T02:12:45;101050.56;;;-0.72;100.00
75942;BME280;64622;46.220;19.878;2023-11-19T02:15:12;101052.69;;;-0.80;100.00
75942;BME280;64622;46.220;19.878;2023-11-19T02:17:40;101050.97;;;-0.81;100.00
75942;BME280;64622;46.220;19.878;2023-11-19T02:20:07;101053.25;;;-0.92;100.00
75942;BME280;64622;46.220;19.878;2023-11-19T02:22:38;101048.69;;;-0.88;100.00
75942;BME280;64622;46.220;19.878;2023-11-19T02:25:07;101045.31;;;-0.90;100.00
75942;BME280;64622;46.220;19.878;2023-11-19T02:28:00;101056.81;;;-0.93;100.00
75942;BME280;64622;46.220;19.878;2023-11-19T02:30:28;101059.22;;;-0.88;100.00
75942;BME280;64622;46.220;19.878;2023-11-19T02:32:56;101050.28;;;-0.84;100.00
75942;BME280;64622;46.220;19.878;2023-11-19T02:35:28;101043.03;;;-0.79;100.00
75942;BME280;64622;46.220;19.878;2023-11-19T02:37:58;101048.88;;;-0.73;100.00
75942;BME280;64622;46.220;19.878;2023-11-19T02:40:30;101037.22;;;-0.67;100.00
75942;BME280;64622;46.220;19.878;2023-11-19T02:42:57;101029.56;;;-0.72;100.00
75942;BME280;64622;46.220;19.878;2023-11-19T02:45:25;101029.75;;;-0.76;100.00
75942;BME280;64622;46.220;19.878;2023-11-19T02:47:53;101016.53;;;-0.75;100.00
75942;BME280;64622;46.220;19.878;2023-11-19T02:50:22;101032.94;;;-0.70;100.00
75942;BME280;64622;46.220;19.878;2023-11-19T02:52:54;101034.16;;;-0.77;100.00
75942;BME280;64622;46.220;19.878;2023-11-19T02:55:23;101028.25;;;-0.82;100.00
75942;BME280;64622;46.220;19.878;2023-11-19T02:57:51;101030.19;;;-0.85;100.00
75942;BME280;64622;46.220;19.878;2023-11-19T03:00:21;101036.28;;;-0.85;100.00
75942;BME280;64622;46.220;19.878;2023-11-19T03:02:58;101035.91;;;-0.77;100.00
75942;BME280;64622;46.220;19.878;2023-11-19T03:05:27;101037.56;;;-0.75;100.00
75942;BME280;64622;46.220;19.878;2023-11-19T03:07:57;101021.72;;;-0.73;100.00
75942;BME280;64622;46.220;19.878;2023-11-19T03:10:24;101019.09;;;-0.73;100.00
75942;BME280;64622;46.220;19.878;2023-11-19T03:12:51;101022.50;;;-0.71;100.00
75942;BME280;64622;46.220;19.878;2023-11-19T03:15:18;101030.66;;;-0.77;100.00
75942;BME280;64622;46.220;19.878;2023-11-19T03:17:45;101030.31;;;-0.70;100.00
75942;BME280;64622;46.220;19.878;2023-11-19T03:20:12;101035.44;;;-0.67;100.00
75942;BME280;64622;46.220;19.878;2023-11-19T03:22:44;101032.31;;;-0.75;100.00
75942;BME280;64622;46.220;19.878;2023-11-19T03:25:11;101040.81;;;-0.70;100.00
75942;BME280;64622;46.220;19.878;2023-11-19T03:27:39;101028.09;;;-0.79;100.00
75942;BME280;64622;46.220;19.878;2023-11-19T03:30:06;101021.16;;;-0.80;100.00
75942;BME280;64622;46.220;19.878;2023-11-19T03:32:33;101015.25;;;-0.85;100.00
75942;BME280;64622;46.220;19.878;2023-11-19T03:35:02;101017.25;;;-0.90;100.00
75942;BME280;64622;46.220;19.878;2023-11-19T03:37:39;101018.28;;;-0.94;100.00
75942;BME280;64622;46.220;19.878;2023-11-19T03:40:06;101007.13;;;-0.99;100.00
75942;BME280;64622;46.220;19.878;2023-11-19T03:42:34;101000.34;;;-1.02;100.00
75942;BME280;64622;46.220;19.878;2023-11-19T03:45:00;100994.00;;;-1.17;100.00
75942;BME280;64622;46.220;19.878;2023-11-19T03:47:27;101008.91;;;-1.17;100.00
75942;BME280;64622;46.220;19.878;2023-11-19T03:49:54;101014.34;;;-1.22;100.00
75942;BME280;64622;46.220;19.878;2023-11-19T03:52:21;101004.50;;;-1.37;100.00
75942;BME280;64622;46.220;19.878;2023-11-19T03:54:49;100989.28;;;-1.29;100.00
75942;BME280;64622;46.220;19.878;2023-11-19T03:57:15;100997.00;;;-1.26;100.00
75942;BME280;64622;46.220;19.878;2023-11-19T03:59:42;100995.38;;;-1.29;100.00
75942;BME280;64622;46.220;19.878;2023-11-19T04:02:09;100988.16;;;-1.24;100.00
75942;BME280;64622;46.220;19.878;2023-11-19T04:04:36;100975.19;;;-1.27;100.00
75942;BME280;64622;46.220;19.878;2023-11-19T04:07:05;100972.09;;;-1.36;100.00
75942;BME280;64622;46.220;19.878;2023-11-19T04:09:32;100979.78;;;-1.32;100.00
75942;BME280;64622;46.220;19.878;2023-11-19T04:12:04;100987.00;;;-1.37;100.00
75942;BME280;64622;46.220;19.878;2023-11-19T04:14:31;100981.69;;;-1.35;100.00
75942;BME280;64622;46.220;19.878;2023-11-19T04:16:58;100996.47;;;-1.33;100.00
75942;BME280;64622;46.220;19.878;2023-11-19T04:19:25;101012.44;;;-1.39;100.00
75942;BME280;64622;46.220;19.878;2023-11-19T04:21:53;101007.63;;;-1.48;100.00
75942;BME280;64622;46.220;19.878;2023-11-19T04:24:20;100995.72;;;-1.56;100.00
75942;BME280;64622;46.220;19.878;2023-11-19T04:26:47;100994.19;;;-1.60;100.00
75942;BME280;64622;46.220;19.878;2023-11-19T04:29:15;100989.37;;;-1.71;100.00
75942;BME280;64622;46.220;19.878;2023-11-19T04:31:43;100981.50;;;-1.71;100.00
75942;BME280;64622;46.220;19.878;2023-11-19T04:34:14;100984.12;;;-1.71;100.00
75942;BME280;64622;46.220;19.878;2023-11-19T04:36:42;100956.84;;;-1.87;100.00
75942;BME280;64622;46.220;19.878;2023-11-19T04:39:17;100973.25;;;-1.82;100.00
75942;BME280;64622;46.220;19.878;2023-11-19T04:41:49;100977.62;;;-1.82;100.00
75942;BME280;64622;46.220;19.878;2023-11-19T04:44:16;100966.53;;;-1.89;100.00
75942;BME280;64622;46.220;19.878;2023-11-19T04:46:43;100969.31;;;-1.72;100.00
75942;BME280;64622;46.220;19.878;2023-11-19T04:49:11;100967.41;;;-1.68;100.00
75942;BME280;64622;46.220;19.878;2023-11-19T04:51:40;100974.03;;;-1.60;100.00
75942;BME280;64622;46.220;19.878;2023-11-19T04:54:08;100961.44;;;-1.52;100.00
75942;BME280;64622;46.220;19.878;2023-11-19T04:56:36;100972.25;;;-1.59;100.00
75942;BME280;64622;46.220;19.878;2023-11-19T04:59:06;100980.25;;;-1.62;100.00
75942;BME280;64622;46.220;19.878;2023-11-19T05:01:33;100965.00;;;-1.73;100.00
75942;BME280;64622;46.220;19.878;2023-11-19T05:04:00;100962.87;;;-1.85;100.00
75942;BME280;64622;46.220;19.878;2023-11-19T05:06:31;100947.34;;;-1.89;100.00
75942;BME280;64622;46.220;19.878;2023-11-19T05:08:59;100952.97;;;-1.98;100.00
75942;BME280;64622;46.220;19.878;2023-11-19T05:11:34;100946.19;;;-2.04;100.00
75942;BME280;64622;46.220;19.878;2023-11-19T05:14:03;100948.50;;;-1.96;100.00
75942;BME280;64622;46.220;19.878;2023-11-19T05:16:30;100940.97;;;-2.04;100.00
75942;BME280;64622;46.220;19.878;2023-11-19T05:18:57;100938.81;;;-2.14;100.00
75942;BME280;64622;46.220;19.878;2023-11-19T05:21:24;100939.84;;;-2.18;100.00
75942;BME280;64622;46.220;19.878;2023-11-19T05:23:51;100946.72;;;-2.16;100.00
75942;BME280;64622;46.220;19.878;2023-11-19T05:26:22;100938.75;;;-2.12;100.00
75942;BME280;64622;46.220;19.878;2023-11-19T05:28:52;100945.75;;;-2.13;100.00
75942;BME280;64622;46.220;19.878;2023-11-19T05:31:19;100946.84;;;-2.19;100.00
75942;BME280;64622;46.220;19.878;2023-11-19T05:33:46;100955.78;;;-2.22;100.00
75942;BME280;64622;46.220;19.878;2023-11-19T05:36:15;100962.56;;;-2.19;100.00
75942;BME280;64622;46.220;19.878;2023-11-19T05:38:42;100963.09;;;-2.31;100.00
75942;BME280;64622;46.220;19.878;2023-11-19T05:41:08;100961.19;;;-2.27;100.00
75942;BME280;64622;46.220;19.878;2023-11-19T05:43:36;100960.47;;;-2.31;100.00
75942;BME280;64622;46.220;19.878;2023-11-19T05:46:05;100948.53;;;-2.37;100.00
75942;BME280;64622;46.220;19.878;2023-11-19T05:48:31;100951.69;;;-2.30;100.00
75942;BME280;64622;46.220;19.878;2023-11-19T05:50:58;100950.53;;;-2.44;100.00
75942;BME280;64622;46.220;19.878;2023-11-19T05:53:26;100976.19;;;-2.31;100.00
75942;BME280;64622;46.220;19.878;2023-11-19T05:55:53;100973.56;;;-2.31;100.00
75942;BME280;64622;46.220;19.878;2023-11-19T05:58:27;100969.00;;;-2.26;100.00
75942;BME280;64622;46.220;19.878;2023-11-19T06:00:56;100964.66;;;-2.27;100.00
75942;BME280;64622;46.220;19.878;2023-11-19T06:03:23;100966.16;;;-2.21;100.00
75942;BME280;64622;46.220;19.878;2023-11-19T06:05:50;100966.59;;;-2.10;100.00
75942;BME280;64622;46.220;19.878;2023-11-19T06:08:17;100956.78;;;-2.05;100.00
75942;BME280;64622;46.220;19.878;2023-11-19T06:10:44;100964.12;;;-1.93;100.00
75942;BME280;64622;46.220;19.878;2023-11-19T06:13:16;100961.28;;;-1.69;100.00
75942;BME280;64622;46.220;19.878;2023-11-19T06:15:44;100958.25;;;-1.40;100.00
75942;BME280;64622;46.220;19.878;2023-11-19T06:18:10;100970.22;;;-1.14;100.00
75942;BME280;64622;46.220;19.878;2023-11-19T06:20:38;100957.81;;;-1.11;100.00
75942;BME280;64622;46.220;19.878;2023-11-19T06:23:05;100954.31;;;-1.11;100.00
75942;BME280;64622;46.220;19.878;2023-11-19T06:25:33;100959.94;;;-1.00;100.00
75942;BME280;64622;46.220;19.878;2023-11-19T06:28:02;100955.41;;;-0.97;100.00
75942;BME280;64622;46.220;19.878;2023-11-19T06:30:29;100952.81;;;-0.61;100.00
75942;BME280;64622;46.220;19.878;2023-11-19T06:32:57;100939.59;;;-0.24;100.00
75942;BME280;64622;46.220;19.878;2023-11-19T06:35:24;100954.00;;;0.03;100.00
75942;BME280;64622;46.220;19.878;2023-11-19T06:37:51;100955.25;;;0.13;100.00
75942;BME280;64622;46.220;19.878;2023-11-19T06:40:18;100929.38;;;0.38;100.00
75942;BME280;64622;46.220;19.878;2023-11-19T06:42:44;100953.66;;;0.43;100.00
75942;BME280;64622;46.220;19.878;2023-11-19T06:45:11;100957.59;;;0.51;100.00
75942;BME280;64622;46.220;19.878;2023-11-19T06:47:38;100946.59;;;0.60;100.00
75942;BME280;64622;46.220;19.878;2023-11-19T06:50:06;100947.75;;;0.87;100.00
75942;BME280;64622;46.220;19.878;2023-11-19T06:52:33;100940.09;;;1.31;100.00
75942;BME280;64622;46.220;19.878;2023-11-19T06:55:00;100933.75;;;1.64;100.00
75942;BME280;64622;46.220;19.878;2023-11-19T06:57:27;100945.37;;;2.21;100.00
75942;BME280;64622;46.220;19.878;2023-11-19T06:59:57;100948.13;;;2.47;100.00
75942;BME280;64622;46.220;19.878;2023-11-19T07:02:24;100948.75;;;2.94;100.00
75942;BME280;64622;46.220;19.878;2023-11-19T07:04:51;100955.56;;;3.39;100.00
75942;BME280;64622;46.220;19.878;2023-11-19T07:07:18;100949.16;;;3.43;100.00
75942;BME280;64622;46.220;19.878;2023-11-19T07:09:46;100938.53;;;3.02;100.00
75942;BME280;64622;46.220;19.878;2023-11-19T07:12:13;100938.34;;;3.05;100.00
75942;BME280;64622;46.220;19.878;2023-11-19T07:14:40;100938.53;;;2.88;100.00
75942;BME280;64622;46.220;19.878;2023-11-19T07:17:08;100934.31;;;3.40;100.00
75942;BME280;64622;46.220;19.878;2023-11-19T07:19:36;100919.53;;;3.10;100.00
75942;BME280;64622;46.220;19.878;2023-11-19T07:22:05;100905.91;;;3.16;100.00
75942;BME280;64622;46.220;19.878;2023-11-19T07:24:33;100906.50;;;3.47;100.00
75942;BME280;64622;46.220;19.878;2023-11-19T07:26:59;100910.94;;;3.73;100.00
75942;BME280;64622;46.220;19.878;2023-11-19T07:29:27;100901.41;;;4.22;100.00
75942;BME280;64622;46.220;19.878;2023-11-19T07:31:54;100919.09;;;3.44;100.00
75942;BME280;64622;46.220;19.878;2023-11-19T07:34:20;100910.69;;;3.37;100.00
75942;BME280;64622;46.220;19.878;2023-11-19T07:36:48;100918.28;;;3.82;100.00
75942;BME280;64622;46.220;19.878;2023-11-19T07:39:14;100905.22;;;4.18;100.00
75942;BME280;64622;46.220;19.878;2023-11-19T07:41:41;100907.13;;;4.16;100.00
75942;BME280;64622;46.220;19.878;2023-11-19T07:44:10;100898.69;;;4.74;100.00
75942;BME280;64622;46.220;19.878;2023-11-19T07:46:37;100891.78;;;4.84;100.00
75942;BME280;64622;46.220;19.878;2023-11-19T07:49:04;100901.97;;;4.40;100.00
75942;BME280;64622;46.220;19.878;2023-11-19T07:51:31;100902.81;;;4.28;100.00
75942;BME280;64622;46.220;19.878;2023-11-19T07:53:58;100904.19;;;4.46;100.00
75942;BME280;64622;46.220;19.878;2023-11-19T07:56:24;100901.75;;;4.93;100.00
75942;BME280;64622;46.220;19.878;2023-11-19T07:58:51;100914.50;;;4.50;100.00
75942;BME280;64622;46.220;19.878;2023-11-19T08:01:19;100911.84;;;4.75;100.00
75942;BME280;64622;46.220;19.878;2023-11-19T08:03:46;100914.25;;;4.66;100.00
75942;BME280;64622;46.220;19.878;2023-11-19T08:06:12;100907.50;;;4.37;100.00
75942;BME280;64622;46.220;19.878;2023-11-19T08:08:39;100901.41;;;3.71;100.00
75942;BME280;64622;46.220;19.878;2023-11-19T08:11:06;100902.25;;;3.98;100.00
75942;BME280;64622;46.220;19.878;2023-11-19T08:13:33;100909.19;;;3.86;100.00
75942;BME280;64622;46.220;19.878;2023-11-19T08:16:00;100901.56;;;3.55;100.00
75942;BME280;64622;46.220;19.878;2023-11-19T08:18:27;100900.75;;;3.41;100.00
75942;BME280;64622;46.220;19.878;2023-11-19T08:20:54;100896.19;;;3.96;100.00
75942;BME280;64622;46.220;19.878;2023-11-19T08:23:23;100881.09;;;4.60;100.00
75942;BME280;64622;46.220;19.878;2023-11-19T08:25:52;100874.91;;;5.21;100.00
75942;BME280;64622;46.220;19.878;2023-11-19T08:28:19;100882.06;;;5.44;100.00
75942;BME280;64622;46.220;19.878;2023-11-19T08:30:46;100881.66;;;5.37;100.00
75942;BME280;64622;46.220;19.878;2023-11-19T08:33:13;100868.72;;;6.14;100.00
75942;BME280;64622;46.220;19.878;2023-11-19T08:35:42;100868.44;;;5.48;100.00
75942;BME280;64622;46.220;19.878;2023-11-19T08:38:08;100872.84;;;5.37;100.00
75942;BME280;64622;46.220;19.878;2023-11-19T08:40:35;100871.97;;;4.64;100.00
75942;BME280;64622;46.220;19.878;2023-11-19T08:43:03;100881.69;;;5.25;100.00
75942;BME280;64622;46.220;19.878;2023-11-19T08:45:30;100888.56;;;5.04;100.00
75942;BME280;64622;46.220;19.878;2023-11-19T08:47:57;100899.00;;;4.32;100.00
75942;BME280;64622;46.220;19.878;2023-11-19T08:50:24;100893.72;;;4.44;100.00
75942;BME280;64622;46.220;19.878;2023-11-19T08:52:50;100890.53;;;4.52;100.00
75942;BME280;64622;46.220;19.878;2023-11-19T08:55:18;100867.72;;;4.87;100.00
75942;BME280;64622;46.220;19.878;2023-11-19T08:57:45;100867.78;;;5.34;100.00
75942;BME280;64622;46.220;19.878;2023-11-19T09:00:12;100867.09;;;5.66;100.00
75942;BME280;64622;46.220;19.878;2023-11-19T09:02:40;100878.13;;;5.73;98.71
75942;BME280;64622;46.220;19.878;2023-11-19T09:05:08;100869.09;;;5.39;98.65
75942;BME280;64622;46.220;19.878;2023-11-19T09:07:34;100863.06;;;5.37;99.51
75942;BME280;64622;46.220;19.878;2023-11-19T09:10:04;100865.91;;;5.70;97.70
75942;BME280;64622;46.220;19.878;2023-11-19T09:12:32;100865.72;;;5.61;98.62
75942;BME280;64622;46.220;19.878;2023-11-19T09:14:58;100870.50;;;5.79;96.20
75942;BME280;64622;46.220;19.878;2023-11-19T09:17:26;100861.59;;;5.57;96.45
75942;BME280;64622;46.220;19.878;2023-11-19T09:19:52;100863.16;;;5.96;96.56
75942;BME280;64622;46.220;19.878;2023-11-19T09:22:19;100864.88;;;6.18;94.69
75942;BME280;64622;46.220;19.878;2023-11-19T09:24:46;100860.59;;;6.83;91.57
75942;BME280;64622;46.220;19.878;2023-11-19T09:27:14;100846.06;;;6.54;90.58
75942;BME280;64622;46.220;19.878;2023-11-19T09:29:42;100839.19;;;6.85;88.64
75942;BME280;64622;46.220;19.878;2023-11-19T09:32:10;100830.37;;;6.41;89.81
75942;BME280;64622;46.220;19.878;2023-11-19T09:34:36;100807.78;;;6.79;90.37
75942;BME280;64622;46.220;19.878;2023-11-19T09:37:03;100809.94;;;6.30;88.78
75942;BME280;64622;46.220;19.878;2023-11-19T09:39:30;100804.38;;;6.55;88.56
75942;BME280;64622;46.220;19.878;2023-11-19T09:41:57;100805.09;;;6.24;89.41
75942;BME280;64622;46.220;19.878;2023-11-19T09:44:25;100792.13;;;5.63;91.55
75942;BME280;64622;46.220;19.878;2023-11-19T09:46:53;100795.47;;;5.54;92.02
75942;BME280;64622;46.220;19.878;2023-11-19T09:49:21;100786.50;;;5.44;91.76
75942;BME280;64622;46.220;19.878;2023-11-19T09:51:50;100800.28;;;5.49;91.60
75942;BME280;64622;46.220;19.878;2023-11-19T09:54:20;100789.78;;;5.47;91.82
75942;BME280;64622;46.220;19.878;2023-11-19T09:56:46;100798.59;;;5.48;91.00
75942;BME280;64622;46.220;19.878;2023-11-19T09:59:14;100803.41;;;5.43;90.28
75942;BME280;64622;46.220;19.878;2023-11-19T10:01:42;100798.53;;;5.37;89.79
75942;BME280;64622;46.220;19.878;2023-11-19T10:04:12;100796.13;;;5.34;89.30
75942;BME280;64622;46.220;19.878;2023-11-19T10:06:42;100791.75;;;5.56;90.16
75942;BME280;64622;46.220;19.878;2023-11-19T10:09:09;100780.06;;;5.70;89.57
75942;BME280;64622;46.220;19.878;2023-11-19T10:11:37;100791.53;;;6.05;88.95
75942;BME280;64622;46.220;19.878;2023-11-19T10:14:04;100787.66;;;5.63;87.98
75942;BME280;64622;46.220;19.878;2023-11-19T10:16:34;100788.19;;;6.14;88.47
75942;BME280;64622;46.220;19.878;2023-11-19T10:19:01;100788.25;;;5.91;87.04
75942;BME280;64622;46.220;19.878;2023-11-19T10:21:28;100769.59;;;5.79;87.36
75942;BME280;64622;46.220;19.878;2023-11-19T10:23:58;100799.28;;;5.73;87.11
75942;BME280;64622;46.220;19.878;2023-11-19T10:26:27;100782.13;;;5.66;86.11
75942;BME280;64622;46.220;19.878;2023-11-19T10:28:55;100796.72;;;5.72;86.32
75942;BME280;64622;46.220;19.878;2023-11-19T10:31:22;100788.50;;;5.64;86.19
75942;BME280;64622;46.220;19.878;2023-11-19T10:33:53;100776.91;;;5.65;86.54
75942;BME280;64622;46.220;19.878;2023-11-19T10:36:20;100772.19;;;5.92;87.18
75942;BME280;64622;46.220;19.878;2023-11-19T10:38:54;100781.19;;;6.13;85.89
75942;BME280;64622;46.220;19.878;2023-11-19T10:41:32;100774.19;;;6.34;84.16
75942;BME280;64622;46.220;19.878;2023-11-19T10:43:59;100763.75;;;6.75;83.56
75942;BME280;64622;46.220;19.878;2023-11-19T10:46:39;100768.63;;;6.48;82.34
75942;BME280;64622;46.220;19.878;2023-11-19T10:49:07;100762.94;;;6.42;81.33
75942;BME280;64622;46.220;19.878;2023-11-19T10:51:35;100753.00;;;6.54;81.72
75942;BME280;64622;46.220;19.878;2023-11-19T10:54:03;100749.63;;;6.63;81.03
75942;BME280;64622;46.220;19.878;2023-11-19T10:56:34;100750.22;;;6.56;80.76
75942;BME280;64622;46.220;19.878;2023-11-19T10:59:02;100748.87;;;6.72;79.73
75942;BME280;64622;46.220;19.878;2023-11-19T11:01:44;100734.41;;;6.54;80.28
75942;BME280;64622;46.220;19.878;2023-11-19T11:04:19;100732.19;;;6.82;81.62
75942;BME280;64622;46.220;19.878;2023-11-19T11:06:49;100740.84;;;7.06;81.48
75942;BME280;64622;46.220;19.878;2023-11-19T11:09:17;100726.66;;;6.62;78.32
75942;BME280;64622;46.220;19.878;2023-11-19T11:11:47;100718.81;;;6.61;78.82
75942;BME280;64622;46.220;19.878;2023-11-19T11:14:16;100726.91;;;7.13;77.37
75942;BME280;64622;46.220;19.878;2023-11-19T11:16:46;100726.59;;;6.84;79.09
75942;BME280;64622;46.220;19.878;2023-11-19T11:19:13;100728.87;;;7.00;76.68
75942;BME280;64622;46.220;19.878;2023-11-19T11:21:44;100729.75;;;6.78;77.06
75942;BME280;64622;46.220;19.878;2023-11-19T11:30:20;100715.44;;;7.02;76.26
75942;BME280;64622;46.220;19.878;2023-11-19T11:33:26;100716.31;;;6.91;78.37
75942;BME280;64622;46.220;19.878;2023-11-19T11:36:22;100715.94;;;6.96;77.78
75942;BME280;64622;46.220;19.878;2023-11-19T11:38:50;100717.38;;;6.99;77.60
75942;BME280;64622;46.220;19.878;2023-11-19T11:41:24;100715.84;;;6.86;78.58
75942;BME280;64622;46.220;19.878;2023-11-19T11:43:53;100721.06;;;6.77;77.17
75942;BME280;64622;46.220;19.878;2023-11-19T11:49:06;100709.06;;;6.82;77.30
75942;BME280;64622;46.220;19.878;2023-11-19T11:57:14;100712.16;;;7.09;74.28
75942;BME280;64622;46.220;19.878;2023-11-19T11:59:43;100712.84;;;7.11;74.67
75942;BME280;64622;46.220;19.878;2023-11-19T12:02:18;100709.84;;;7.04;74.38
75942;BME280;64622;46.220;19.878;2023-11-19T12:04:50;100689.59;;;6.93;74.18
75942;BME280;64622;46.220;19.878;2023-11-19T12:07:20;100700.94;;;6.94;75.49
75942;BME280;64622;46.220;19.878;2023-11-19T12:09:51;100691.47;;;7.33;74.08
75942;BME280;64622;46.220;19.878;2023-11-19T12:12:26;100684.16;;;7.14;72.28
75942;BME280;64622;46.220;19.878;2023-11-19T12:15:09;100675.31;;;6.93;72.12
75942;BME280;64622;46.220;19.878;2023-11-19T12:17:41;100668.84;;;6.76;72.46
75942;BME280;64622;46.220;19.878;2023-11-19T12:20:11;100658.53;;;6.82;73.08
75942;BME280;64622;46.220;19.878;2023-11-19T12:22:39;100647.19;;;6.80;72.39
75942;BME280;64622;46.220;19.878;2023-11-19T12:25:10;100642.16;;;6.66;73.11
75942;BME280;64622;46.220;19.878;2023-11-19T12:27:40;100644.28;;;6.83;73.24
75942;BME280;64622;46.220;19.878;2023-11-19T12:30:10;100634.22;;;6.55;73.96
75942;BME280;64622;46.220;19.878;2023-11-19T12:35:06;100636.34;;;6.61;74.01
75942;BME280;64622;46.220;19.878;2023-11-19T12:37:33;100640.22;;;6.68;72.81
75942;BME280;64622;46.220;19.878;2023-11-19T12:40:02;100631.91;;;6.82;70.46
75942;BME280;64622;46.220;19.878;2023-11-19T12:42:36;100629.16;;;6.83;70.18
75942;BME280;64622;46.220;19.878;2023-11-19T12:45:05;100620.63;;;7.01;71.85
75942;BME280;64622;46.220;19.878;2023-11-19T12:47:32;100631.69;;;6.85;74.14
75942;BME280;64622;46.220;19.878;2023-11-19T12:49:59;100641.00;;;6.37;78.41
75942;BME280;64622;46.220;19.878;2023-11-19T12:52:26;100618.47;;;6.63;80.61
75942;BME280;64622;46.220;19.878;2023-11-19T12:54:53;100623.09;;;6.50;80.73
75942;BME280;64622;46.220;19.878;2023-11-19T12:57:20;100614.62;;;6.56;81.33
75942;BME280;64622;46.220;19.878;2023-11-19T12:59:56;100608.16;;;6.69;80.31
75942;BME280;64622;46.220;19.878;2023-11-19T13:02:23;100610.31;;;6.44;81.23